Página principal
METAR-TAF:

METAR-TAF

Aeroportos :

Pohnpei, Micronésia

latitude: 06-59N, longitude: 158-12E, altura: 2 m

Observação actual do tempo

O boletim foi feito há 46 minutos, às 03:50 UTC
Vento 4 kt de sudeste
Temperatura 29°C
Humidade 89%
Pressão 1006 hPa
Visibilidade: 24.1 km
Nuvens fragmentadasa uma altura de 1800 ft, Cumulus congestus.
Nuvens fragmentadasa uma altura de 13000 ft
Encobertoa uma altura de 30000 ft

METAR: PTPN 210350Z 13004KT 15SM BKN018TCU BKN130 OVC300 29/27 A2970 RMK TCU OHD AND SE-SW LAST

Hora: 15:36 (04:36 UTC)

Previsão

O boletim foi feito há 2 horas e 10 minutos, às 02:26 UTC
Previsão válida de 21 às 02 UTC a 21 às 24 UTC
Vento 8 kt de es-nordeste
Visibilidade: 10 km
Nuvens dispersasa uma altura de 1800 ft
Nuvens dispersasa uma altura de 13000 ft
aguaceiros nas vizinhanças

TAF: PTPN 210226Z 2102/2124 07008KT P6SM VCSH SCT018 SCT130

Observações e previsões do tempo de mais de 4000 aeroportos (mensagens METAR e TAF).

As estações disponíveis são os pontos amarelos e vermelhos sobre o mapa.

Mova o rato sobre o mapa para ver o nome da estação.

Depois clique no ponto para visualizar as observações e previsões meteorológicas.

Para alterar o mapa : clique nos botões verdes com uma cruz preta para aumentar o zoom; no botão verde com uma pitada de zoom; ou nas setas verdes para mapas adjacentes.


METAR-TAF: